Accueil
METAR-TAF:

METAR-TAF

Aéroports :

Yeovilton, Angleterre

latitude: 51-00N, longitude: 002-38W, altitude: 23 m

Observation

Le bulletin a été fait il y a 49 minutes, à 11:20 UTC
Vent 15 kt de est/sud-est
Température 8°C
Humidité 71%
Pression 1009 hPa
Visibilité 10 km ou plus
Quelques nuages à une hauteur de 2000 ft
Nuages fragmentés à une hauteur de 3000 ft

METAR: EGDY 201120Z 12015KT 9999 FEW020 BKN030 08/03 Q1009 TEMPO SCT020 RMK BLU TEMPO WHT

Heure: 12:09 (12:09 UTC)

Prévision

Le bulletin a été fait il y a 1 heure et 32 minutes, à 10:37 UTC
Prévision valable du 20 à 12 UTC au 20 à 21 UTC
Vent 10 kt de sud-est
Visibilité 10 km ou plus
Quelques nuages à une hauteur de 2000 ft
Nuages épars à une hauteur de 2500 ft
Temporairement
du 20 à 12 UTC au 20 à 21 UTC
Nuages épars à une hauteur de 2000 ft

TAF: EGDY 201037Z 2012/2021 14010KT 9999 FEW020 SCT025 TEMPO 2012/2021 SCT020

Observations et prévisions météorologiques de plus de 4000 aéroports (messages METAR et TAF).

Les stations disponibles sont représentées par des disques jaunes et rouges sur la carte.

Passer la souris dessus pour voir le nom de la station.

Cliquer dessus pour voir les observations et prévisions météorologiques.

Pour changer de carte: cliquez sur les boutons verts avec une croix noire pour zoomer, sur le bouton vert avec un tiret pour effectuer un zoom arrière, ou sur les flèches vertes pour les cartes adjacentes.


METAR-TAF: